Terminal Aerodrome Forecast
Issued by NWS Charleston, WV

Home | Current Version | Previous Version | Text Only | Print | Product List | Glossary On
Versions: 1 2 3 4 5 6 7 8 9 10 11 12 13 14 15 16 17 18 19 20 21 22 23 24 25 26
531
FTUS41 KRLX 120537
TAFHTS
TAF
KHTS 120537Z 1206/1306 23008KT P6SM BKN060
     FM121000 25009KT P6SM BKN035
     FM121200 28010G17KT 6SM -SHSN OVC020
     FM121400 29013G24KT 5SM -SHSN BKN015
     FM121800 29014G24KT P6SM -SHSN BKN035
     FM130300 29008G19KT P6SM SCT050=

USA.gov is the U.S. government's official web portal to all federal, state and local government web resources and services.